LIPH METAR and TAF | Updated Today

LIPH METAR

Treviso-Sant'Angelo Airport

Observation time: 21 min. ago

LIPH 061950Z VRB01KT CAVOK 16/15 Q1028

Need help? Read our tutorial on how to read METARs or read the parsed version below.

Treviso-Sant'Angelo Airport (LIPH) METAR

  • Weather conditions on Thu, 06 Oct 2022 19:50:00 +0000 (21 min. ago):
  • Present conditions: Dry
  • Clouds: Clear skies
  • Visibility: Greater than 10 km
  • Wind: Variable at 1 knots
  • Temperature: 16 celsius
  • Dew point: 15 celsius
  • Pressure: 1028 millibars
  • Remarks: None


Useful to know...

LIPH TAF

Treviso-Sant'Angelo Airport

TAF LIPH 061700Z 0618/0718 VRB04KT CAVOK
Observation time: 3:11 hr. ago
Need help? Read our tutorial on how to read TAFs or read the parsed version below.

Parsed version of TAF for Treviso-Sant'Angelo Airport (LIPH)

  • From 06 October at 18:00 UTC, to day 07 of the month at 18:00 UTC
  • Visibility: Greater than 10 km
  • Wind: Variable at 4